sensor_id;sensor_type;location;lat;lon;timestamp;pressure;altitude;pressure_sealevel;temperature;humidity
46534;BME280;32260;52.008;4.752;2023-05-03T00:01:49;103072.56;;;9.57;53.91
46534;BME280;32260;52.008;4.752;2023-05-03T00:04:16;103078.72;;;9.54;55.18
46534;BME280;32260;52.008;4.752;2023-05-03T00:06:43;103065.44;;;9.51;54.73
46534;BME280;32260;52.008;4.752;2023-05-03T00:09:09;103066.25;;;9.48;54.03
46534;BME280;32260;52.008;4.752;2023-05-03T00:11:36;103064.47;;;9.47;54.41
46534;BME280;32260;52.008;4.752;2023-05-03T00:14:02;103075.88;;;9.45;55.00
46534;BME280;32260;52.008;4.752;2023-05-03T00:16:28;103066.06;;;9.41;54.35
46534;BME280;32260;52.008;4.752;2023-05-03T00:18:55;103065.19;;;9.38;54.02
46534;BME280;32260;52.008;4.752;2023-05-03T00:21:21;103067.75;;;9.35;54.43
46534;BME280;32260;52.008;4.752;2023-05-03T00:23:47;103056.19;;;9.32;54.28
46534;BME280;32260;52.008;4.752;2023-05-03T00:26:13;103064.13;;;9.32;54.29
46534;BME280;32260;52.008;4.752;2023-05-03T00:28:39;103065.88;;;9.30;54.48
46534;BME280;32260;52.008;4.752;2023-05-03T00:31:08;103069.38;;;9.29;54.58
46534;BME280;32260;52.008;4.752;2023-05-03T00:33:35;103053.44;;;9.26;54.89
46534;BME280;32260;52.008;4.752;2023-05-03T00:36:10;103064.09;;;9.29;54.73
46534;BME280;32260;52.008;4.752;2023-05-03T00:38:37;103059.53;;;9.21;54.80
46534;BME280;32260;52.008;4.752;2023-05-03T00:41:03;103062.13;;;9.20;54.97
46534;BME280;32260;52.008;4.752;2023-05-03T00:43:30;103060.34;;;9.19;55.27
46534;BME280;32260;52.008;4.752;2023-05-03T00:45:58;103060.31;;;9.17;54.94
46534;BME280;32260;52.008;4.752;2023-05-03T00:48:24;103057.63;;;9.16;55.06
46534;BME280;32260;52.008;4.752;2023-05-03T00:50:51;103060.25;;;9.14;54.83
46534;BME280;32260;52.008;4.752;2023-05-03T00:53:21;103063.75;;;9.13;55.13
46534;BME280;32260;52.008;4.752;2023-05-03T00:55:48;103067.28;;;9.12;54.61
46534;BME280;32260;52.008;4.752;2023-05-03T00:58:16;103062.78;;;9.10;54.56
46534;BME280;32260;52.008;4.752;2023-05-03T01:00:42;103076.88;;;9.09;55.41
46534;BME280;32260;52.008;4.752;2023-05-03T01:03:09;103082.13;;;9.07;55.73
46534;BME280;32260;52.008;4.752;2023-05-03T01:06:43;103075.16;;;9.11;54.62
46534;BME280;32260;52.008;4.752;2023-05-03T01:08:36;103081.22;;;9.05;55.05
46534;BME280;32260;52.008;4.752;2023-05-03T01:16:39;103061.66;;;8.98;55.46
46534;BME280;32260;52.008;4.752;2023-05-03T01:19:36;103065.34;;;9.05;55.60
46534;BME280;32260;52.008;4.752;2023-05-03T01:23:20;103071.50;;;9.05;55.16
46534;BME280;32260;52.008;4.752;2023-05-03T01:25:12;103067.88;;;9.00;55.76
46534;BME280;32260;52.008;4.752;2023-05-03T01:27:39;103066.84;;;8.94;55.39
46534;BME280;32260;52.008;4.752;2023-05-03T01:30:08;103066.78;;;8.92;56.03
46534;BME280;32260;52.008;4.752;2023-05-03T01:35:39;103073.97;;;8.96;55.97
46534;BME280;32260;52.008;4.752;2023-05-03T01:38:07;103083.47;;;8.88;55.18
46534;BME280;32260;52.008;4.752;2023-05-03T01:40:42;103073.72;;;8.87;55.58
46534;BME280;32260;52.008;4.752;2023-05-03T01:43:12;103065.72;;;8.82;55.82
46534;BME280;32260;52.008;4.752;2023-05-03T01:45:39;103063.88;;;8.80;56.39
46534;BME280;32260;52.008;4.752;2023-05-03T01:48:14;103063.88;;;8.80;56.59
46534;BME280;32260;52.008;4.752;2023-05-03T01:50:40;103053.19;;;8.73;56.31
46534;BME280;32260;52.008;4.752;2023-05-03T01:53:06;103055.75;;;8.70;55.86
46534;BME280;32260;52.008;4.752;2023-05-03T01:55:32;103057.44;;;8.68;55.93
46534;BME280;32260;52.008;4.752;2023-05-03T01:57:59;103048.63;;;8.68;55.83
46534;BME280;32260;52.008;4.752;2023-05-03T02:00:25;103044.19;;;8.65;56.45
46534;BME280;32260;52.008;4.752;2023-05-03T02:02:51;103037.97;;;8.65;55.80
46534;BME280;32260;52.008;4.752;2023-05-03T02:05:17;103034.41;;;8.61;56.40
46534;BME280;32260;52.008;4.752;2023-05-03T02:07:44;103027.28;;;8.58;56.62
46534;BME280;32260;52.008;4.752;2023-05-03T02:10:10;103022.81;;;8.56;56.58
46534;BME280;32260;52.008;4.752;2023-05-03T02:12:40;103013.97;;;8.54;56.59
46534;BME280;32260;52.008;4.752;2023-05-03T02:15:07;103006.81;;;8.50;56.83
46534;BME280;32260;52.008;4.752;2023-05-03T02:17:33;102998.81;;;8.47;56.94
46534;BME280;32260;52.008;4.752;2023-05-03T02:20:00;103004.03;;;8.45;56.65
46534;BME280;32260;52.008;4.752;2023-05-03T02:22:26;102999.59;;;8.42;56.84
46534;BME280;32260;52.008;4.752;2023-05-03T02:24:52;103001.28;;;8.40;56.56
46534;BME280;32260;52.008;4.752;2023-05-03T02:27:18;103005.59;;;8.37;56.65
46534;BME280;32260;52.008;4.752;2023-05-03T02:29:44;103009.91;;;8.33;56.48
46534;BME280;32260;52.008;4.752;2023-05-03T02:32:10;103030.97;;;8.30;56.68
46534;BME280;32260;52.008;4.752;2023-05-03T02:34:37;103030.88;;;8.27;56.72
46534;BME280;32260;52.008;4.752;2023-05-03T02:37:03;103044.03;;;8.24;57.37
46534;BME280;32260;52.008;4.752;2023-05-03T02:39:29;103038.72;;;8.22;56.95
46534;BME280;32260;52.008;4.752;2023-05-03T02:41:55;103040.44;;;8.22;57.42
46534;BME280;32260;52.008;4.752;2023-05-03T02:44:21;103040.41;;;8.20;57.42
46534;BME280;32260;52.008;4.752;2023-05-03T02:46:47;103043.91;;;8.19;57.27
46534;BME280;32260;52.008;4.752;2023-05-03T02:49:13;103051.84;;;8.19;57.89
46534;BME280;32260;52.008;4.752;2023-05-03T02:51:39;103052.66;;;8.17;58.19
46534;BME280;32260;52.008;4.752;2023-05-03T02:54:06;103050.88;;;8.17;57.26
46534;BME280;32260;52.008;4.752;2023-05-03T02:56:32;103053.50;;;8.16;57.07
46534;BME280;32260;52.008;4.752;2023-05-03T02:58:58;103051.72;;;8.15;57.02
46534;BME280;32260;52.008;4.752;2023-05-03T03:01:24;103050.81;;;8.14;57.66
46534;BME280;32260;52.008;4.752;2023-05-03T03:03:51;103048.16;;;8.13;56.91
46534;BME280;32260;52.008;4.752;2023-05-03T03:06:17;103049.00;;;8.12;57.60
46534;BME280;32260;52.008;4.752;2023-05-03T03:08:43;103047.16;;;8.07;56.93
46534;BME280;32260;52.008;4.752;2023-05-03T03:11:09;103044.50;;;8.07;57.50
46534;BME280;32260;52.008;4.752;2023-05-03T03:13:36;103040.00;;;8.05;57.78
46534;BME280;32260;52.008;4.752;2023-05-03T03:16:05;103040.88;;;8.04;58.25
46534;BME280;32260;52.008;4.752;2023-05-03T03:18:32;103049.69;;;8.04;57.30
46534;BME280;32260;52.008;4.752;2023-05-03T03:21:00;103053.19;;;8.03;57.46
46534;BME280;32260;52.008;4.752;2023-05-03T03:23:26;103047.88;;;8.02;57.52
46534;BME280;32260;52.008;4.752;2023-05-03T03:25:52;103047.84;;;8.00;58.36
46534;BME280;32260;52.008;4.752;2023-05-03T03:28:19;103053.06;;;7.99;57.74
46534;BME280;32260;52.008;4.752;2023-05-03T03:30:45;103052.13;;;7.97;57.73
46534;BME280;32260;52.008;4.752;2023-05-03T03:33:11;103050.31;;;7.94;57.80
46534;BME280;32260;52.008;4.752;2023-05-03T03:35:38;103056.44;;;7.93;57.43
46534;BME280;32260;52.008;4.752;2023-05-03T03:38:04;103051.97;;;7.90;57.97
46534;BME280;32260;52.008;4.752;2023-05-03T03:40:31;103048.41;;;7.90;57.61
46534;BME280;32260;52.008;4.752;2023-05-03T03:42:57;103053.66;;;7.88;57.57
46534;BME280;32260;52.008;4.752;2023-05-03T03:45:24;103050.97;;;7.85;58.21
46534;BME280;32260;52.008;4.752;2023-05-03T03:47:50;103052.69;;;7.85;57.78
46534;BME280;32260;52.008;4.752;2023-05-03T03:50:16;103054.44;;;7.84;57.90
46534;BME280;32260;52.008;4.752;2023-05-03T03:52:42;103059.72;;;7.84;58.23
46534;BME280;32260;52.008;4.752;2023-05-03T03:55:08;103054.41;;;7.83;57.37
46534;BME280;32260;52.008;4.752;2023-05-03T03:57:34;103056.09;;;7.81;57.43
46534;BME280;32260;52.008;4.752;2023-05-03T04:00:00;103061.38;;;7.81;57.59
46534;BME280;32260;52.008;4.752;2023-05-03T04:02:26;103064.03;;;7.81;57.57
46534;BME280;32260;52.008;4.752;2023-05-03T04:04:52;103068.44;;;7.80;57.99
46534;BME280;32260;52.008;4.752;2023-05-03T04:07:19;103073.72;;;7.82;58.19
46534;BME280;32260;52.008;4.752;2023-05-03T04:09:45;103079.00;;;7.82;58.64
46534;BME280;32260;52.008;4.752;2023-05-03T04:12:11;103082.53;;;7.82;58.53
46534;BME280;32260;52.008;4.752;2023-05-03T04:14:37;103084.31;;;7.83;58.93
46534;BME280;32260;52.008;4.752;2023-05-03T04:17:03;103083.47;;;7.84;58.38
46534;BME280;32260;52.008;4.752;2023-05-03T04:19:29;103088.78;;;7.86;58.59
46534;BME280;32260;52.008;4.752;2023-05-03T04:21:55;103095.88;;;7.87;59.59
46534;BME280;32260;52.008;4.752;2023-05-03T04:24:24;103089.72;;;7.86;59.17
46534;BME280;32260;52.008;4.752;2023-05-03T04:26:50;103094.19;;;7.89;58.51
46534;BME280;32260;52.008;4.752;2023-05-03T04:29:16;103100.28;;;7.88;58.65
46534;BME280;32260;52.008;4.752;2023-05-03T04:31:44;103096.81;;;7.89;58.57
46534;BME280;32260;52.008;4.752;2023-05-03T04:34:10;103099.44;;;7.89;57.91
46534;BME280;32260;52.008;4.752;2023-05-03T04:36:41;103099.38;;;7.87;57.85
46534;BME280;32260;52.008;4.752;2023-05-03T04:39:07;103092.38;;;7.88;57.63
46534;BME280;32260;52.008;4.752;2023-05-03T04:41:36;103094.19;;;7.89;57.99
46534;BME280;32260;52.008;4.752;2023-05-03T04:44:03;103086.19;;;7.87;58.55
46534;BME280;32260;52.008;4.752;2023-05-03T04:46:30;103087.94;;;7.87;57.85
46534;BME280;32260;52.008;4.752;2023-05-03T04:48:56;103084.47;;;7.88;58.27
46534;BME280;32260;52.008;4.752;2023-05-03T04:51:22;103086.28;;;7.90;58.11
46534;BME280;32260;52.008;4.752;2023-05-03T04:53:48;103085.47;;;7.93;58.07
46534;BME280;32260;52.008;4.752;2023-05-03T04:56:15;103086.44;;;7.97;57.81
46534;BME280;32260;52.008;4.752;2023-05-03T04:58:41;103090.81;;;7.96;57.96
46534;BME280;32260;52.008;4.752;2023-05-03T05:01:09;103082.09;;;7.99;58.10
46534;BME280;32260;52.008;4.752;2023-05-03T05:03:35;103090.06;;;8.00;57.42
46534;BME280;32260;52.008;4.752;2023-05-03T05:06:01;103087.47;;;8.02;57.68
46534;BME280;32260;52.008;4.752;2023-05-03T05:08:27;103091.94;;;8.04;58.36
46534;BME280;32260;52.008;4.752;2023-05-03T05:10:53;103092.88;;;8.06;58.25
46534;BME280;32260;52.008;4.752;2023-05-03T05:13:19;103099.06;;;8.08;58.33
46534;BME280;32260;52.008;4.752;2023-05-03T05:15:45;103094.72;;;8.09;57.69
46534;BME280;32260;52.008;4.752;2023-05-03T05:18:11;103099.16;;;8.12;57.76
46534;BME280;32260;52.008;4.752;2023-05-03T05:20:37;103104.53;;;8.15;58.41
46534;BME280;32260;52.008;4.752;2023-05-03T05:23:03;103100.22;;;8.18;57.77
46534;BME280;32260;52.008;4.752;2023-05-03T05:25:29;103100.31;;;8.21;57.72
46534;BME280;32260;52.008;4.752;2023-05-03T05:27:56;103103.94;;;8.25;58.35
46534;BME280;32260;52.008;4.752;2023-05-03T05:30:22;103103.16;;;8.29;58.14
46534;BME280;32260;52.008;4.752;2023-05-03T05:32:48;103101.50;;;8.34;57.95
46534;BME280;32260;52.008;4.752;2023-05-03T05:35:14;103102.50;;;8.38;58.47
46534;BME280;32260;52.008;4.752;2023-05-03T05:37:42;103100.78;;;8.40;57.81
46534;BME280;32260;52.008;4.752;2023-05-03T05:40:09;103112.31;;;8.43;58.51
46534;BME280;32260;52.008;4.752;2023-05-03T05:42:35;103111.59;;;8.49;58.89
46534;BME280;32260;52.008;4.752;2023-05-03T05:45:01;103109.09;;;8.54;58.38
46534;BME280;32260;52.008;4.752;2023-05-03T05:47:27;103116.22;;;8.58;58.45
46534;BME280;32260;52.008;4.752;2023-05-03T05:49:53;103115.53;;;8.65;58.42
46534;BME280;32260;52.008;4.752;2023-05-03T05:52:19;103119.16;;;8.69;58.22
46534;BME280;32260;52.008;4.752;2023-05-03T05:54:45;103122.78;;;8.74;58.65
46534;BME280;32260;52.008;4.752;2023-05-03T05:57:11;103122.03;;;8.80;58.34
46534;BME280;32260;52.008;4.752;2023-05-03T05:59:38;103125.69;;;8.85;58.52
46534;BME280;32260;52.008;4.752;2023-05-03T06:02:04;103116.13;;;8.90;58.47
46534;BME280;32260;52.008;4.752;2023-05-03T06:04:36;103116.22;;;8.95;58.57
46534;BME280;32260;52.008;4.752;2023-05-03T06:07:02;103113.63;;;8.96;58.46
46534;BME280;32260;52.008;4.752;2023-05-03T06:09:28;103113.75;;;9.02;58.35
46534;BME280;32260;52.008;4.752;2023-05-03T06:11:54;103103.25;;;9.05;58.99
46534;BME280;32260;52.008;4.752;2023-05-03T06:14:20;103104.25;;;9.11;58.60
46534;BME280;32260;52.008;4.752;2023-05-03T06:16:46;103097.28;;;9.16;58.33
46534;BME280;32260;52.008;4.752;2023-05-03T06:19:12;103101.84;;;9.21;58.54
46534;BME280;32260;52.008;4.752;2023-05-03T06:21:38;103097.53;;;9.27;58.71
46534;BME280;32260;52.008;4.752;2023-05-03T06:24:05;103107.38;;;9.32;58.38
46534;BME280;32260;52.008;4.752;2023-05-03T06:26:31;103098.66;;;9.38;58.00
46534;BME280;32260;52.008;4.752;2023-05-03T06:28:57;103101.44;;;9.44;58.59
46534;BME280;32260;52.008;4.752;2023-05-03T06:31:25;103102.47;;;9.51;58.35
46534;BME280;32260;52.008;4.752;2023-05-03T06:33:51;103104.38;;;9.58;58.36
46534;BME280;32260;52.008;4.752;2023-05-03T06:36:17;103105.38;;;9.63;58.16
46534;BME280;32260;52.008;4.752;2023-05-03T06:38:43;103099.31;;;9.70;58.08
46534;BME280;32260;52.008;4.752;2023-05-03T06:41:10;103101.22;;;9.78;57.61
46534;BME280;32260;52.008;4.752;2023-05-03T06:43:36;103098.72;;;9.85;58.03
46534;BME280;32260;52.008;4.752;2023-05-03T06:46:02;103096.19;;;9.92;57.46
46534;BME280;32260;52.008;4.752;2023-05-03T06:48:28;103087.59;;;10.02;57.44
46534;BME280;32260;52.008;4.752;2023-05-03T06:50:55;103093.00;;;10.10;57.17
46534;BME280;32260;52.008;4.752;2023-05-03T06:53:21;103084.31;;;10.17;57.27
46534;BME280;32260;52.008;4.752;2023-05-03T06:55:47;103084.47;;;10.26;57.13
46534;BME280;32260;52.008;4.752;2023-05-03T06:58:13;103077.50;;;10.33;57.03
46534;BME280;32260;52.008;4.752;2023-05-03T07:00:39;103077.69;;;10.41;57.00
46534;BME280;32260;52.008;4.752;2023-05-03T07:03:05;103075.19;;;10.50;56.86
46534;BME280;32260;52.008;4.752;2023-05-03T07:05:32;103083.22;;;10.56;56.56
46534;BME280;32260;52.008;4.752;2023-05-03T07:07:58;103071.84;;;10.63;56.42
46534;BME280;32260;52.008;4.752;2023-05-03T07:10:24;103066.66;;;10.70;56.56
46534;BME280;32260;52.008;4.752;2023-05-03T07:12:50;103061.44;;;10.76;56.39
46534;BME280;32260;52.008;4.752;2023-05-03T07:15:16;103063.34;;;10.84;56.04
46534;BME280;32260;52.008;4.752;2023-05-03T07:17:42;103065.16;;;10.90;56.13
46534;BME280;32260;52.008;4.752;2023-05-03T07:20:09;103063.53;;;11.00;55.76
46534;BME280;32260;52.008;4.752;2023-05-03T07:22:35;103062.81;;;11.10;55.49
46534;BME280;32260;52.008;4.752;2023-05-03T07:25:01;103054.94;;;11.18;55.30
46534;BME280;32260;52.008;4.752;2023-05-03T07:27:27;103052.41;;;11.27;55.05
46534;BME280;32260;52.008;4.752;2023-05-03T07:29:53;103040.13;;;11.36;55.31
46534;BME280;32260;52.008;4.752;2023-05-03T07:32:19;103042.00;;;11.43;54.94
46534;BME280;32260;52.008;4.752;2023-05-03T07:34:46;103041.16;;;11.50;54.97
46534;BME280;32260;52.008;4.752;2023-05-03T07:37:12;103042.16;;;11.58;54.61
46534;BME280;32260;52.008;4.752;2023-05-03T07:39:40;103033.31;;;11.59;54.53
46534;BME280;32260;52.008;4.752;2023-05-03T07:42:06;103034.31;;;11.69;55.02
46534;BME280;32260;52.008;4.752;2023-05-03T07:44:33;103031.72;;;11.75;54.61
46534;BME280;32260;52.008;4.752;2023-05-03T07:46:59;103030.97;;;11.90;54.64
46534;BME280;32260;52.008;4.752;2023-05-03T07:49:25;103025.69;;;11.93;54.23
46534;BME280;32260;52.008;4.752;2023-05-03T07:51:51;103024.91;;;12.02;54.05
46534;BME280;32260;52.008;4.752;2023-05-03T07:54:17;103024.13;;;12.12;53.88
46534;BME280;32260;52.008;4.752;2023-05-03T07:56:43;103026.84;;;12.20;53.56
46534;BME280;32260;52.008;4.752;2023-05-03T07:59:09;103018.06;;;12.27;54.11
46534;BME280;32260;52.008;4.752;2023-05-03T08:01:36;103027.00;;;12.39;53.70
46534;BME280;32260;52.008;4.752;2023-05-03T08:04:02;103026.19;;;12.52;53.71
46534;BME280;32260;52.008;4.752;2023-05-03T08:06:29;103030.75;;;12.69;53.09
46534;BME280;32260;52.008;4.752;2023-05-03T08:08:56;103032.56;;;12.82;53.12
46534;BME280;32260;52.008;4.752;2023-05-03T08:11:22;103021.09;;;12.88;53.09
46534;BME280;32260;52.008;4.752;2023-05-03T08:13:48;103022.03;;;13.01;53.33
46534;BME280;32260;52.008;4.752;2023-05-03T08:16:14;103022.09;;;13.13;53.10
46534;BME280;32260;52.008;4.752;2023-05-03T08:18:41;103014.16;;;13.21;52.02
46534;BME280;32260;52.008;4.752;2023-05-03T08:21:07;103020.38;;;13.31;52.14
46534;BME280;32260;52.008;4.752;2023-05-03T08:23:34;103016.03;;;13.37;52.13
46534;BME280;32260;52.008;4.752;2023-05-03T08:26:01;103018.69;;;13.45;51.83
46534;BME280;32260;52.008;4.752;2023-05-03T08:28:29;103011.59;;;13.52;51.80
46534;BME280;32260;52.008;4.752;2023-05-03T08:30:56;103019.63;;;13.53;52.11
46534;BME280;32260;52.008;4.752;2023-05-03T08:33:22;103013.41;;;13.64;51.55
46534;BME280;32260;52.008;4.752;2023-05-03T08:35:48;103015.22;;;13.71;51.15
46534;BME280;32260;52.008;4.752;2023-05-03T08:38:14;103013.44;;;13.76;51.14
46534;BME280;32260;52.008;4.752;2023-05-03T08:40:41;103021.44;;;13.82;51.05
46534;BME280;32260;52.008;4.752;2023-05-03T08:43:09;103025.00;;;13.89;51.12
46534;BME280;32260;52.008;4.752;2023-05-03T08:45:35;103026.78;;;13.95;50.61
46534;BME280;32260;52.008;4.752;2023-05-03T08:48:01;103029.47;;;14.01;50.65
46534;BME280;32260;52.008;4.752;2023-05-03T08:50:29;103037.47;;;14.07;50.21
46534;BME280;32260;52.008;4.752;2023-05-03T08:52:56;103040.13;;;14.13;49.95
46534;BME280;32260;52.008;4.752;2023-05-03T08:55:24;103038.34;;;14.18;49.79
46534;BME280;32260;52.008;4.752;2023-05-03T08:57:50;103036.56;;;14.27;49.47
46534;BME280;32260;52.008;4.752;2023-05-03T09:00:16;103031.22;;;14.30;49.46
46534;BME280;32260;52.008;4.752;2023-05-03T09:02:44;103027.66;;;14.34;49.24
46534;BME280;32260;52.008;4.752;2023-05-03T09:05:31;103030.31;;;14.51;49.31
46534;BME280;32260;52.008;4.752;2023-05-03T09:10:39;103033.84;;;14.59;48.81
46534;BME280;32260;52.008;4.752;2023-05-03T09:13:06;103027.66;;;14.65;48.81
46534;BME280;32260;52.008;4.752;2023-05-03T09:15:33;103030.28;;;14.74;48.85
46534;BME280;32260;52.008;4.752;2023-05-03T09:20:48;103025.81;;;14.98;48.67
46534;BME280;32260;52.008;4.752;2023-05-03T09:26:02;103028.38;;;15.18;48.14
46534;BME280;32260;52.008;4.752;2023-05-03T09:28:28;103034.56;;;15.25;47.75
46534;BME280;32260;52.008;4.752;2023-05-03T09:31:04;103026.53;;;15.34;47.68
46534;BME280;32260;52.008;4.752;2023-05-03T09:33:33;103030.97;;;15.38;47.32
46534;BME280;32260;52.008;4.752;2023-05-03T09:36:01;103027.34;;;15.48;47.14
46534;BME280;32260;52.008;4.752;2023-05-03T09:38:30;103025.53;;;15.57;47.10
46534;BME280;32260;52.008;4.752;2023-05-03T09:40:57;103023.69;;;15.62;46.34
46534;BME280;32260;52.008;4.752;2023-05-03T09:43:23;103021.88;;;15.68;46.17
46534;BME280;32260;52.008;4.752;2023-05-03T09:45:49;103020.97;;;15.71;45.97
46534;BME280;32260;52.008;4.752;2023-05-03T09:48:16;103024.47;;;15.79;46.12
46534;BME280;32260;52.008;4.752;2023-05-03T09:50:42;103021.78;;;15.85;45.67
46534;BME280;32260;52.008;4.752;2023-05-03T09:53:09;103029.81;;;15.85;45.66
46534;BME280;32260;52.008;4.752;2023-05-03T09:55:37;103020.00;;;15.88;45.99
46534;BME280;32260;52.008;4.752;2023-05-03T09:58:04;103020.81;;;15.99;45.72
46534;BME280;32260;52.008;4.752;2023-05-03T10:00:35;103019.81;;;16.09;45.68
46534;BME280;32260;52.008;4.752;2023-05-03T10:03:06;103025.13;;;16.15;45.74
46534;BME280;32260;52.008;4.752;2023-05-03T10:05:35;103026.03;;;16.13;44.79
46534;BME280;32260;52.008;4.752;2023-05-03T10:08:05;103019.78;;;16.12;45.83
46534;BME280;32260;52.008;4.752;2023-05-03T10:10:33;103018.91;;;16.12;45.45
46534;BME280;32260;52.008;4.752;2023-05-03T10:13:02;103009.09;;;16.12;45.13
46534;BME280;32260;52.008;4.752;2023-05-03T10:15:29;103006.41;;;16.15;45.21
46534;BME280;32260;52.008;4.752;2023-05-03T10:17:58;103006.34;;;16.22;45.22
46534;BME280;32260;52.008;4.752;2023-05-03T10:21:41;103012.56;;;16.22;45.24
46534;BME280;32260;52.008;4.752;2023-05-03T10:23:17;103001.91;;;16.19;45.07
46534;BME280;32260;52.008;4.752;2023-05-03T10:28:39;103002.66;;;16.32;45.16
46534;BME280;32260;52.008;4.752;2023-05-03T10:31:46;102990.91;;;16.48;44.63
46534;BME280;32260;52.008;4.752;2023-05-03T10:34:29;102993.38;;;16.67;44.13
46534;BME280;32260;52.008;4.752;2023-05-03T10:36:58;102987.19;;;16.65;44.25
46534;BME280;32260;52.008;4.752;2023-05-03T10:39:27;102988.88;;;16.72;43.99
46534;BME280;32260;52.008;4.752;2023-05-03T10:42:01;102985.16;;;16.86;43.50
46534;BME280;32260;52.008;4.752;2023-05-03T10:44:49;102983.34;;;16.88;43.38
46534;BME280;32260;52.008;4.752;2023-05-03T10:47:17;102986.84;;;16.97;43.16
46534;BME280;32260;52.008;4.752;2023-05-03T10:49:44;102984.06;;;17.04;42.56
46534;BME280;32260;52.008;4.752;2023-05-03T10:55:16;102979.41;;;17.20;42.74
46534;BME280;32260;52.008;4.752;2023-05-03T10:57:45;102973.03;;;17.27;42.38
46534;BME280;32260;52.008;4.752;2023-05-03T11:05:49;102967.06;;;17.69;42.27
46534;BME280;32260;52.008;4.752;2023-05-03T11:08:18;102965.16;;;17.75;42.17
46534;BME280;32260;52.008;4.752;2023-05-03T11:10:45;102969.47;;;17.84;41.90
46534;BME280;32260;52.008;4.752;2023-05-03T11:13:12;102956.03;;;17.87;41.73
46534;BME280;32260;52.008;4.752;2023-05-03T11:15:39;102951.44;;;17.97;41.66
46534;BME280;32260;52.008;4.752;2023-05-03T11:18:07;102952.13;;;18.08;41.50
46534;BME280;32260;52.008;4.752;2023-05-03T11:20:34;102950.19;;;18.15;41.44
46534;BME280;32260;52.008;4.752;2023-05-03T11:23:01;102950.09;;;18.21;41.21
46534;BME280;32260;52.008;4.752;2023-05-03T11:25:27;102948.31;;;18.22;40.59
46534;BME280;32260;52.008;4.752;2023-05-03T11:27:53;102933.94;;;18.24;40.35
46534;BME280;32260;52.008;4.752;2023-05-03T11:30:20;102929.41;;;18.28;40.65
46534;BME280;32260;52.008;4.752;2023-05-03T11:32:46;102922.03;;;18.39;40.10
46534;BME280;32260;52.008;4.752;2023-05-03T11:35:13;102926.25;;;18.51;40.23
46534;BME280;32260;52.008;4.752;2023-05-03T11:37:41;102927.78;;;18.65;39.58
46534;BME280;32260;52.008;4.752;2023-05-03T11:40:14;102916.63;;;18.85;38.08
46534;BME280;32260;52.008;4.752;2023-05-03T11:45:37;102922.38;;;19.08;39.07
46534;BME280;32260;52.008;4.752;2023-05-03T11:48:05;102916.16;;;19.08;37.03
46534;BME280;32260;52.008;4.752;2023-05-03T11:50:52;102914.78;;;19.28;38.24
46534;BME280;32260;52.008;4.752;2023-05-03T11:53:22;102913.03;;;19.27;38.36
46534;BME280;32260;52.008;4.752;2023-05-03T11:55:51;102905.69;;;19.33;37.94
46534;BME280;32260;52.008;4.752;2023-05-03T11:58:21;102899.31;;;19.37;37.67
46534;BME280;32260;52.008;4.752;2023-05-03T12:00:50;102898.28;;;19.43;37.11
46534;BME280;32260;52.008;4.752;2023-05-03T12:03:22;102894.44;;;19.53;37.50
46534;BME280;32260;52.008;4.752;2023-05-03T12:05:50;102888.88;;;19.61;36.85
46534;BME280;32260;52.008;4.752;2023-05-03T12:08:18;102888.41;;;19.80;37.37
46534;BME280;32260;52.008;4.752;2023-05-03T12:10:47;102882.84;;;19.87;36.59
46534;BME280;32260;52.008;4.752;2023-05-03T12:13:14;102877.28;;;19.95;36.14
46534;BME280;32260;52.008;4.752;2023-05-03T12:15:41;102867.97;;;20.07;36.84
46534;BME280;32260;52.008;4.752;2023-05-03T12:18:11;102863.31;;;20.12;36.54
46534;BME280;32260;52.008;4.752;2023-05-03T12:20:38;102858.84;;;20.13;34.18
46534;BME280;32260;52.008;4.752;2023-05-03T12:23:06;102851.53;;;20.18;35.16
46534;BME280;32260;52.008;4.752;2023-05-03T12:25:34;102851.41;;;20.21;36.05
46534;BME280;32260;52.008;4.752;2023-05-03T12:28:02;102854.09;;;20.23;35.35
46534;BME280;32260;52.008;4.752;2023-05-03T12:30:29;102844.31;;;20.20;34.46
46534;BME280;32260;52.008;4.752;2023-05-03T12:32:56;102847.97;;;20.16;34.79
46534;BME280;32260;52.008;4.752;2023-05-03T12:35:22;102844.13;;;20.26;35.57
46534;BME280;32260;52.008;4.752;2023-05-03T12:37:49;102842.06;;;20.34;35.44
46534;BME280;32260;52.008;4.752;2023-05-03T12:40:17;102841.81;;;20.44;35.06
46534;BME280;32260;52.008;4.752;2023-05-03T12:42:44;102832.59;;;20.51;35.04
46534;BME280;32260;52.008;4.752;2023-05-03T12:45:11;102832.41;;;20.57;34.81
46534;BME280;32260;52.008;4.752;2023-05-03T12:47:38;102825.91;;;20.64;34.36
46534;BME280;32260;52.008;4.752;2023-05-03T12:50:05;102822.97;;;20.74;34.38
46534;BME280;32260;52.008;4.752;2023-05-03T12:52:34;102815.63;;;20.79;33.56
46534;BME280;32260;52.008;4.752;2023-05-03T12:55:03;102820.81;;;20.85;33.88
46534;BME280;32260;52.008;4.752;2023-05-03T12:57:29;102817.00;;;20.92;34.13
46534;BME280;32260;52.008;4.752;2023-05-03T12:59:56;102807.97;;;20.93;33.00
46534;BME280;32260;52.008;4.752;2023-05-03T13:02:22;102805.00;;;21.03;33.88
46534;BME280;32260;52.008;4.752;2023-05-03T13:04:49;102798.25;;;21.16;33.87
46534;BME280;32260;52.008;4.752;2023-05-03T13:07:21;102792.22;;;21.34;32.33
46534;BME280;32260;52.008;4.752;2023-05-03T13:09:50;102793.50;;;21.49;33.25
46534;BME280;32260;52.008;4.752;2023-05-03T13:12:17;102787.75;;;21.60;32.57
46534;BME280;32260;52.008;4.752;2023-05-03T13:14:46;102785.00;;;21.62;32.58
46534;BME280;32260;52.008;4.752;2023-05-03T13:17:13;102776.88;;;21.63;32.41
46534;BME280;32260;52.008;4.752;2023-05-03T13:19:42;102773.19;;;21.66;32.39
46534;BME280;32260;52.008;4.752;2023-05-03T13:22:17;102774.66;;;21.75;32.40
46534;BME280;32260;52.008;4.752;2023-05-03T13:24:45;102771.91;;;21.76;31.87
46534;BME280;32260;52.008;4.752;2023-05-03T13:27:15;102769.06;;;21.81;33.19
46534;BME280;32260;52.008;4.752;2023-05-03T13:29:41;102770.38;;;21.94;32.83